createdAt,value
2023-02-26T00:01:56.434Z,44.2
2023-02-26T00:07:14.473Z,44.5
2023-02-26T00:12:33.269Z,44.5
2023-02-26T00:17:51.670Z,44.3
2023-02-26T00:23:09.887Z,44.9
2023-02-26T00:28:27.925Z,44.9
2023-02-26T00:33:46.138Z,44.7
2023-02-26T00:39:04.942Z,44.8
2023-02-26T00:44:23.209Z,44.7
2023-02-26T00:49:41.667Z,44.8
2023-02-26T00:55:00.157Z,44.5
2023-02-26T01:00:18.689Z,44.6
2023-02-26T01:05:37.425Z,44.7
2023-02-26T01:10:55.367Z,44.5
2023-02-26T01:16:14.593Z,45
2023-02-26T01:21:33.436Z,44.9
2023-02-26T01:26:51.347Z,44.2
2023-02-26T01:32:10.444Z,44.2
2023-02-26T01:37:29.000Z,44.6
2023-02-26T01:42:47.512Z,45.3
2023-02-26T01:48:05.805Z,45.2
2023-02-26T01:53:23.718Z,45.2
2023-02-26T01:58:41.980Z,45.3
2023-02-26T02:04:00.541Z,45.6
2023-02-26T02:09:19.026Z,45.9
2023-02-26T02:14:36.966Z,45.3
2023-02-26T02:19:55.303Z,45.5
2023-02-26T02:25:14.352Z,45.4
2023-02-26T02:30:33.302Z,45.8
2023-02-26T02:35:51.848Z,46.1
2023-02-26T02:41:10.300Z,46.3
2023-02-26T02:46:30.617Z,46.3
2023-02-26T02:51:48.897Z,46.4
2023-02-26T02:57:07.125Z,46.4
2023-02-26T03:02:25.526Z,45.8
2023-02-26T03:07:43.575Z,46.1
2023-02-26T03:13:02.064Z,46.5
2023-02-26T03:18:20.314Z,46
2023-02-26T03:23:39.134Z,46.5
2023-02-26T03:28:57.052Z,45.9
2023-02-26T03:34:15.810Z,46.3
2023-02-26T03:39:34.334Z,45.6
2023-02-26T03:44:52.798Z,45.8
2023-02-26T03:50:11.338Z,46.6
2023-02-26T03:55:30.155Z,46.6
2023-02-26T04:00:48.060Z,46
2023-02-26T04:06:06.530Z,46.7
2023-02-26T04:11:24.836Z,46.1
2023-02-26T04:16:42.940Z,46
2023-02-26T04:21:45.633Z,46
2023-02-26T04:27:04.227Z,46.1
2023-02-26T04:32:22.564Z,46.9
2023-02-26T04:37:41.156Z,46.3
2023-02-26T04:42:59.502Z,46.8
2023-02-26T04:48:17.665Z,46.1
2023-02-26T04:53:36.167Z,46.3
2023-02-26T04:58:54.421Z,46.8
2023-02-26T05:04:13.046Z,46.2
2023-02-26T05:09:31.568Z,46.3
2023-02-26T05:14:50.075Z,46.2
2023-02-26T05:20:08.585Z,47
2023-02-26T05:25:27.086Z,46.3
2023-02-26T05:30:45.674Z,46.9
2023-02-26T05:36:04.433Z,46.3
2023-02-26T05:41:22.953Z,46.4
2023-02-26T05:46:41.222Z,47.2
2023-02-26T05:51:59.814Z,46.5
2023-02-26T05:57:18.054Z,46.9
2023-02-26T06:02:36.542Z,46.2
2023-02-26T06:07:55.060Z,46.3
2023-02-26T06:13:13.567Z,47
2023-02-26T06:18:32.357Z,46.5
2023-02-26T06:23:50.905Z,46.1
2023-02-26T06:29:08.814Z,47
2023-02-26T06:34:27.637Z,46.3
2023-02-26T06:39:46.453Z,46.2
2023-02-26T06:45:06.048Z,46.2
2023-02-26T06:50:24.266Z,46.9
2023-02-26T06:55:42.814Z,46.6
2023-02-26T07:01:01.170Z,47
2023-02-26T07:06:40.075Z,47
2023-02-26T07:11:58.791Z,46.8
2023-02-26T07:17:17.271Z,46.2
2023-02-26T07:22:36.124Z,46.7
2023-02-26T07:27:54.345Z,46.6
2023-02-26T07:33:17.078Z,46.6
2023-02-26T07:38:35.322Z,46.4
2023-02-26T07:43:53.494Z,45.4
2023-02-26T07:49:11.713Z,38.5
2023-02-26T07:54:29.979Z,41.3
2023-02-26T07:59:48.450Z,41.4
2023-02-26T08:05:06.964Z,41.9
2023-02-26T08:10:25.476Z,41.7
2023-02-26T08:15:44.559Z,41.5
2023-02-26T08:21:04.275Z,41.8
2023-02-26T08:26:23.055Z,41.8
2023-02-26T08:31:42.096Z,41.6
2023-02-26T08:37:00.677Z,42.7
2023-02-26T08:42:03.635Z,43.2
2023-02-26T08:47:29.521Z,42.7
2023-02-26T08:52:32.391Z,43.4
2023-02-26T08:57:50.323Z,44
2023-02-26T09:03:09.398Z,42.1
2023-02-26T09:08:28.170Z,38.8
2023-02-26T09:13:46.730Z,38.9
2023-02-26T09:19:05.449Z,41.3
2023-02-26T09:24:24.262Z,42.8
2023-02-26T09:29:43.386Z,42.2
2023-02-26T09:35:03.258Z,43.2
2023-02-26T09:40:22.427Z,43.3
2023-02-26T09:45:45.176Z,43.4
2023-02-26T09:51:05.155Z,43.5
2023-02-26T09:56:24.541Z,44.5
2023-02-26T10:01:43.049Z,45.1
2023-02-26T10:07:01.574Z,45.6
2023-02-26T10:12:04.513Z,46.3
2023-02-26T10:17:23.312Z,46.4
2023-02-26T10:22:41.781Z,45.9
2023-02-26T10:28:00.146Z,46.7
2023-02-26T10:33:18.122Z,45.4
2023-02-26T10:38:36.558Z,46
2023-02-26T10:43:55.215Z,45.1
2023-02-26T10:49:13.464Z,45.1
2023-02-26T10:54:32.507Z,45
2023-02-26T10:59:50.436Z,45.2
2023-02-26T11:05:09.027Z,44.6
2023-02-26T11:10:27.769Z,44.5
2023-02-26T11:15:46.062Z,45.3
2023-02-26T11:21:04.679Z,45
2023-02-26T11:26:23.677Z,44.5
2023-02-26T11:31:43.035Z,44.3
2023-02-26T11:37:01.777Z,44.8
2023-02-26T11:42:20.583Z,44.9
2023-02-26T11:47:38.785Z,44.3
2023-02-26T11:52:57.889Z,44.5
2023-02-26T11:58:16.123Z,44.5
2023-02-26T12:03:34.568Z,45.2
2023-02-26T12:08:53.299Z,45.2
2023-02-26T12:14:12.018Z,44.4
2023-02-26T12:19:30.797Z,45.2
2023-02-26T12:24:49.412Z,44.6
2023-02-26T12:30:07.934Z,44.4
2023-02-26T12:35:27.738Z,44.4
2023-02-26T12:40:45.669Z,45.3
2023-02-26T12:46:03.896Z,44.4
2023-02-26T12:51:22.427Z,44.4
2023-02-26T12:56:40.911Z,44.1
2023-02-26T13:02:02.560Z,44
2023-02-26T13:07:21.674Z,44.1
2023-02-26T13:12:39.970Z,44.4
2023-02-26T13:17:58.437Z,44.2
2023-02-26T13:23:16.648Z,44.7
2023-02-26T13:28:35.213Z,44.4
2023-02-26T13:33:53.485Z,44.1
2023-02-26T13:39:12.009Z,43.8
2023-02-26T13:44:30.273Z,44.3
2023-02-26T13:49:48.455Z,44.2
2023-02-26T13:55:06.665Z,44.3
2023-02-26T14:00:25.465Z,44.2
2023-02-26T14:05:43.937Z,43.3
2023-02-26T14:11:02.122Z,43.5
2023-02-26T14:16:20.694Z,44.3
2023-02-26T14:21:39.213Z,43.9
2023-02-26T14:26:57.425Z,43.5
2023-02-26T14:32:16.374Z,44.4
2023-02-26T14:37:34.910Z,43.6
2023-02-26T14:42:53.092Z,43.7
2023-02-26T14:48:11.113Z,44.1
2023-02-26T14:53:29.568Z,44.3
2023-02-26T14:58:48.623Z,44.3
2023-02-26T15:04:06.969Z,43.5
2023-02-26T15:09:24.866Z,43.5
2023-02-26T15:14:43.677Z,44.2
2023-02-26T15:20:02.448Z,43.5
2023-02-26T15:25:20.719Z,43.7
2023-02-26T15:30:39.357Z,44.1
2023-02-26T15:35:58.157Z,43.4
2023-02-26T15:41:16.444Z,43.4
2023-02-26T15:46:34.977Z,43.4
2023-02-26T15:51:53.868Z,43.4
2023-02-26T15:57:11.774Z,43.7
2023-02-26T16:02:33.651Z,44
2023-02-26T16:07:51.770Z,44.1
2023-02-26T16:13:10.400Z,43.3
2023-02-26T16:18:29.026Z,43.8
2023-02-26T16:23:47.273Z,43.8
2023-02-26T16:29:05.511Z,43.8
2023-02-26T16:34:23.836Z,43.8
2023-02-26T16:39:41.976Z,43.8
2023-02-26T16:45:00.514Z,43.4
2023-02-26T16:50:18.706Z,43.5
2023-02-26T16:55:36.678Z,43.9
2023-02-26T17:00:54.862Z,43.3
2023-02-26T17:06:13.393Z,43.9
2023-02-26T17:11:31.999Z,44
2023-02-26T17:16:52.361Z,43.7
2023-02-26T17:22:10.841Z,43.4
2023-02-26T17:27:29.581Z,43.8
2023-02-26T17:32:48.392Z,43.5
2023-02-26T17:38:06.319Z,44.1
2023-02-26T17:43:24.321Z,44.8
2023-02-26T17:48:42.317Z,44.9
2023-02-26T17:54:00.916Z,44.6
2023-02-26T17:59:18.892Z,43.8
2023-02-26T18:04:37.818Z,44.1
2023-02-26T18:09:40.800Z,44
2023-02-26T18:14:59.382Z,43.8
2023-02-26T18:20:17.926Z,44
2023-02-26T18:25:36.748Z,44.6
2023-02-26T18:30:55.944Z,44.8
2023-02-26T18:36:14.192Z,44.9
2023-02-26T18:41:32.975Z,44.7
2023-02-26T18:46:51.631Z,45.1
2023-02-26T18:52:10.423Z,47.5
2023-02-26T18:57:28.914Z,47.4
2023-02-26T19:02:47.822Z,47.7
2023-02-26T19:08:06.419Z,47.5
2023-02-26T19:13:24.739Z,47.9
2023-02-26T19:18:43.100Z,46.8
2023-02-26T19:24:01.115Z,47.1
2023-02-26T19:29:20.198Z,46.3
2023-02-26T19:34:38.545Z,46.6
2023-02-26T19:39:58.606Z,47.3
2023-02-26T19:45:17.361Z,47
2023-02-26T19:50:35.664Z,46.3
2023-02-26T19:55:53.860Z,45.9
2023-02-26T20:01:12.419Z,46
2023-02-26T20:06:31.001Z,47.2
2023-02-26T20:11:49.462Z,46.4
2023-02-26T20:17:07.954Z,47.9
2023-02-26T20:22:26.464Z,46.8
2023-02-26T20:27:47.911Z,46.8
2023-02-26T20:33:07.187Z,47.2
2023-02-26T20:38:25.405Z,47.1
2023-02-26T20:43:43.716Z,47.5
2023-02-26T20:49:02.472Z,47
2023-02-26T20:54:20.864Z,47.3
2023-02-26T20:59:39.843Z,47.6
2023-02-26T21:04:58.314Z,47.4
2023-02-26T21:10:16.988Z,47.9
2023-02-26T21:15:38.062Z,46.9
2023-02-26T21:20:56.517Z,48.3
2023-02-26T21:26:14.805Z,47.7
2023-02-26T21:31:33.638Z,47.2
2023-02-26T21:36:51.864Z,47.2
2023-02-26T21:42:10.300Z,47.2
2023-02-26T21:47:28.483Z,47.7
2023-02-26T21:52:47.003Z,47.1
2023-02-26T21:58:05.216Z,47.2
2023-02-26T22:03:23.667Z,47.8
2023-02-26T22:08:42.201Z,48
2023-02-26T22:14:01.308Z,47.4
2023-02-26T22:19:03.873Z,48.1
2023-02-26T22:24:21.786Z,48.1
2023-02-26T22:29:40.360Z,47.2
2023-02-26T22:34:58.294Z,47.1
2023-02-26T22:40:16.797Z,47.2
2023-02-26T22:45:35.120Z,47.3
2023-02-26T22:50:53.321Z,47.4
2023-02-26T22:56:11.777Z,47.5
2023-02-26T23:01:30.435Z,47.6
2023-02-26T23:06:48.943Z,47.9
2023-02-26T23:12:07.412Z,48.1
2023-02-26T23:17:26.246Z,47.5
2023-02-26T23:22:44.681Z,47.2
2023-02-26T23:28:03.148Z,48.2
2023-02-26T23:33:21.384Z,48.2
2023-02-26T23:38:39.555Z,47.6
2023-02-26T23:43:58.383Z,47.3
2023-02-26T23:49:16.355Z,48.1
2023-02-26T23:54:34.600Z,47
2023-02-26T23:59:53.108Z,47.3
